sensor_id;sensor_type;location;lat;lon;timestamp;temperature;humidity
39777;DHT22;25453;48.162;14.510;2022-11-20T00:01:32;4.50;75.00
39777;DHT22;25453;48.162;14.510;2022-11-20T00:04:00;4.60;75.10
39777;DHT22;25453;48.162;14.510;2022-11-20T00:06:34;4.60;75.00
39777;DHT22;25453;48.162;14.510;2022-11-20T00:09:10;4.60;74.70
39777;DHT22;25453;48.162;14.510;2022-11-20T00:11:37;4.60;74.70
39777;DHT22;25453;48.162;14.510;2022-11-20T00:14:11;4.60;74.80
39777;DHT22;25453;48.162;14.510;2022-11-20T00:16:45;4.60;74.70
39777;DHT22;25453;48.162;14.510;2022-11-20T00:19:12;4.60;74.70
39777;DHT22;25453;48.162;14.510;2022-11-20T00:21:42;4.60;74.80
39777;DHT22;25453;48.162;14.510;2022-11-20T00:24:17;4.60;74.60
39777;DHT22;25453;48.162;14.510;2022-11-20T00:26:44;4.60;74.60
39777;DHT22;25453;48.162;14.510;2022-11-20T00:29:18;4.60;74.60
39777;DHT22;25453;48.162;14.510;2022-11-20T00:31:52;4.60;74.50
39777;DHT22;25453;48.162;14.510;2022-11-20T00:34:26;4.60;74.20
39777;DHT22;25453;48.162;14.510;2022-11-20T00:37:07;4.60;74.40
39777;DHT22;25453;48.162;14.510;2022-11-20T00:39:34;4.50;74.30
39777;DHT22;25453;48.162;14.510;2022-11-20T00:42:08;4.50;74.50
39777;DHT22;25453;48.162;14.510;2022-11-20T00:44:42;4.60;74.60
39777;DHT22;25453;48.162;14.510;2022-11-20T00:47:18;4.60;74.60
39777;DHT22;25453;48.162;14.510;2022-11-20T00:49:46;4.60;74.40
39777;DHT22;25453;48.162;14.510;2022-11-20T00:52:21;4.50;74.50
39777;DHT22;25453;48.162;14.510;2022-11-20T00:54:57;4.60;74.40
39777;DHT22;25453;48.162;14.510;2022-11-20T00:57:25;4.50;74.00
39777;DHT22;25453;48.162;14.510;2022-11-20T00:59:59;4.50;73.90
39777;DHT22;25453;48.162;14.510;2022-11-20T01:02:26;4.40;74.00
39777;DHT22;25453;48.162;14.510;2022-11-20T01:05:00;4.40;74.40
39777;DHT22;25453;48.162;14.510;2022-11-20T01:07:34;4.40;74.10
39777;DHT22;25453;48.162;14.510;2022-11-20T01:10:09;4.40;74.30
39777;DHT22;25453;48.162;14.510;2022-11-20T01:12:36;4.40;74.30
39777;DHT22;25453;48.162;14.510;2022-11-20T01:15:10;4.40;73.90
39777;DHT22;25453;48.162;14.510;2022-11-20T01:17:38;4.40;73.90
39777;DHT22;25453;48.162;14.510;2022-11-20T01:20:11;4.30;74.00
39777;DHT22;25453;48.162;14.510;2022-11-20T01:22:39;4.30;74.40
39777;DHT22;25453;48.162;14.510;2022-11-20T01:25:06;4.40;74.50
39777;DHT22;25453;48.162;14.510;2022-11-20T01:27:55;4.40;74.50
39777;DHT22;25453;48.162;14.510;2022-11-20T01:30:37;4.40;74.50
39777;DHT22;25453;48.162;14.510;2022-11-20T01:33:10;4.40;74.40
39777;DHT22;25453;48.162;14.510;2022-11-20T01:35:51;4.40;74.00
39777;DHT22;25453;48.162;14.510;2022-11-20T01:38:18;4.40;74.30
39777;DHT22;25453;48.162;14.510;2022-11-20T01:40:54;4.40;74.30
39777;DHT22;25453;48.162;14.510;2022-11-20T01:43:23;4.40;74.10
39777;DHT22;25453;48.162;14.510;2022-11-20T01:46:17;4.40;74.10
39777;DHT22;25453;48.162;14.510;2022-11-20T01:48:46;4.40;74.30
39777;DHT22;25453;48.162;14.510;2022-11-20T01:54:25;4.40;74.40
39777;DHT22;25453;48.162;14.510;2022-11-20T01:57:01;4.50;74.50
39777;DHT22;25453;48.162;14.510;2022-11-20T01:59:29;4.50;74.30
39777;DHT22;25453;48.162;14.510;2022-11-20T02:02:03;4.50;74.40
39777;DHT22;25453;48.162;14.510;2022-11-20T02:04:38;4.50;74.30
39777;DHT22;25453;48.162;14.510;2022-11-20T02:07:06;4.50;74.40
39777;DHT22;25453;48.162;14.510;2022-11-20T02:09:41;4.50;74.40
39777;DHT22;25453;48.162;14.510;2022-11-20T02:12:09;4.50;74.40
39777;DHT22;25453;48.162;14.510;2022-11-20T02:15:03;4.50;74.40
39777;DHT22;25453;48.162;14.510;2022-11-20T02:17:32;4.50;74.30
39777;DHT22;25453;48.162;14.510;2022-11-20T02:20:07;4.50;74.40
39777;DHT22;25453;48.162;14.510;2022-11-20T02:22:50;4.50;74.50
39777;DHT22;25453;48.162;14.510;2022-11-20T02:25:28;4.60;74.60
39777;DHT22;25453;48.162;14.510;2022-11-20T02:28:02;4.60;74.50
39777;DHT22;25453;48.162;14.510;2022-11-20T02:30:36;4.60;74.30
39777;DHT22;25453;48.162;14.510;2022-11-20T02:33:03;4.60;74.10
39777;DHT22;25453;48.162;14.510;2022-11-20T02:35:45;4.60;74.10
39777;DHT22;25453;48.162;14.510;2022-11-20T02:38:13;4.60;74.10
39777;DHT22;25453;48.162;14.510;2022-11-20T02:40:47;4.50;74.10
39777;DHT22;25453;48.162;14.510;2022-11-20T02:43:22;4.50;74.40
39777;DHT22;25453;48.162;14.510;2022-11-20T02:45:49;4.50;74.50
39777;DHT22;25453;48.162;14.510;2022-11-20T02:48:25;4.60;74.50
39777;DHT22;25453;48.162;14.510;2022-11-20T02:51:00;4.60;74.30
39777;DHT22;25453;48.162;14.510;2022-11-20T02:53:27;4.60;74.20
39777;DHT22;25453;48.162;14.510;2022-11-20T02:56:04;4.60;74.40
39777;DHT22;25453;48.162;14.510;2022-11-20T02:58:38;4.60;74.50
39777;DHT22;25453;48.162;14.510;2022-11-20T03:01:05;4.60;74.30
39777;DHT22;25453;48.162;14.510;2022-11-20T03:03:39;4.60;74.40
39777;DHT22;25453;48.162;14.510;2022-11-20T03:06:07;4.60;74.40
39777;DHT22;25453;48.162;14.510;2022-11-20T03:08:42;4.60;74.40
39777;DHT22;25453;48.162;14.510;2022-11-20T03:11:09;4.60;74.40
39777;DHT22;25453;48.162;14.510;2022-11-20T03:13:44;4.60;74.30
39777;DHT22;25453;48.162;14.510;2022-11-20T03:16:13;4.60;74.30
39777;DHT22;25453;48.162;14.510;2022-11-20T03:18:48;4.60;74.30
39777;DHT22;25453;48.162;14.510;2022-11-20T03:21:15;4.60;74.30
39777;DHT22;25453;48.162;14.510;2022-11-20T03:23:49;4.60;74.30
39777;DHT22;25453;48.162;14.510;2022-11-20T03:26:25;4.60;74.20
39777;DHT22;25453;48.162;14.510;2022-11-20T03:28:55;4.60;74.40
39777;DHT22;25453;48.162;14.510;2022-11-20T03:31:35;4.60;74.60
39777;DHT22;25453;48.162;14.510;2022-11-20T03:34:11;4.60;74.60
39777;DHT22;25453;48.162;14.510;2022-11-20T03:36:45;4.60;74.70
39777;DHT22;25453;48.162;14.510;2022-11-20T03:39:19;4.60;74.60
39777;DHT22;25453;48.162;14.510;2022-11-20T03:41:48;4.60;74.50
39777;DHT22;25453;48.162;14.510;2022-11-20T03:44:23;4.60;74.70
39777;DHT22;25453;48.162;14.510;2022-11-20T03:46:53;4.60;74.80
39777;DHT22;25453;48.162;14.510;2022-11-20T03:49:29;4.60;74.60
39777;DHT22;25453;48.162;14.510;2022-11-20T03:51:56;4.60;74.80
39777;DHT22;25453;48.162;14.510;2022-11-20T03:54:23;4.60;75.00
39777;DHT22;25453;48.162;14.510;2022-11-20T03:56:57;4.60;75.00
39777;DHT22;25453;48.162;14.510;2022-11-20T03:59:24;4.60;75.00
39777;DHT22;25453;48.162;14.510;2022-11-20T04:01:58;4.60;75.10
39777;DHT22;25453;48.162;14.510;2022-11-20T04:04:25;4.70;75.40
39777;DHT22;25453;48.162;14.510;2022-11-20T04:06:59;4.70;75.40
39777;DHT22;25453;48.162;14.510;2022-11-20T04:09:26;4.70;75.60
39777;DHT22;25453;48.162;14.510;2022-11-20T04:12:01;4.70;75.60
39777;DHT22;25453;48.162;14.510;2022-11-20T04:14:35;4.70;75.60
39777;DHT22;25453;48.162;14.510;2022-11-20T04:17:09;4.70;75.70
39777;DHT22;25453;48.162;14.510;2022-11-20T04:19:36;4.70;75.70
39777;DHT22;25453;48.162;14.510;2022-11-20T04:22:10;4.70;75.60
39777;DHT22;25453;48.162;14.510;2022-11-20T04:24:40;4.70;75.50
39777;DHT22;25453;48.162;14.510;2022-11-20T04:27:14;4.60;75.60
39777;DHT22;25453;48.162;14.510;2022-11-20T04:29:41;4.60;75.70
39777;DHT22;25453;48.162;14.510;2022-11-20T04:32:22;4.60;75.70
39777;DHT22;25453;48.162;14.510;2022-11-20T04:35:03;4.60;75.80
39777;DHT22;25453;48.162;14.510;2022-11-20T04:37:31;4.60;76.10
39777;DHT22;25453;48.162;14.510;2022-11-20T04:40:05;4.60;75.90
39777;DHT22;25453;48.162;14.510;2022-11-20T04:42:34;4.60;76.00
39777;DHT22;25453;48.162;14.510;2022-11-20T04:45:08;4.60;76.20
39777;DHT22;25453;48.162;14.510;2022-11-20T04:47:35;4.70;76.30
39777;DHT22;25453;48.162;14.510;2022-11-20T04:50:09;4.70;76.30
39777;DHT22;25453;48.162;14.510;2022-11-20T04:52:36;4.70;76.20
39777;DHT22;25453;48.162;14.510;2022-11-20T04:55:11;4.70;76.30
39777;DHT22;25453;48.162;14.510;2022-11-20T04:57:38;4.70;76.40
39777;DHT22;25453;48.162;14.510;2022-11-20T05:00:12;4.70;76.40
39777;DHT22;25453;48.162;14.510;2022-11-20T05:02:40;4.70;76.50
39777;DHT22;25453;48.162;14.510;2022-11-20T05:05:14;4.80;76.50
39777;DHT22;25453;48.162;14.510;2022-11-20T05:07:41;4.80;76.40
39777;DHT22;25453;48.162;14.510;2022-11-20T05:10:15;4.80;76.30
39777;DHT22;25453;48.162;14.510;2022-11-20T05:12:42;4.80;76.40
39777;DHT22;25453;48.162;14.510;2022-11-20T05:15:16;4.80;76.40
39777;DHT22;25453;48.162;14.510;2022-11-20T05:17:48;4.80;76.40
39777;DHT22;25453;48.162;14.510;2022-11-20T05:20:21;4.80;76.40
39777;DHT22;25453;48.162;14.510;2022-11-20T05:22:50;4.80;76.30
39777;DHT22;25453;48.162;14.510;2022-11-20T05:25:24;4.80;76.30
39777;DHT22;25453;48.162;14.510;2022-11-20T05:27:51;4.80;76.50
39777;DHT22;25453;48.162;14.510;2022-11-20T05:30:26;4.80;76.40
39777;DHT22;25453;48.162;14.510;2022-11-20T05:32:59;4.80;76.60
39777;DHT22;25453;48.162;14.510;2022-11-20T05:35:40;4.80;76.70
39777;DHT22;25453;48.162;14.510;2022-11-20T05:38:07;4.80;76.70
39777;DHT22;25453;48.162;14.510;2022-11-20T05:40:42;4.80;76.60
39777;DHT22;25453;48.162;14.510;2022-11-20T05:43:16;4.80;76.60
39777;DHT22;25453;48.162;14.510;2022-11-20T05:45:53;4.90;76.80
39777;DHT22;25453;48.162;14.510;2022-11-20T05:48:28;4.90;76.80
39777;DHT22;25453;48.162;14.510;2022-11-20T05:51:03;4.90;76.80
39777;DHT22;25453;48.162;14.510;2022-11-20T05:53:33;4.90;76.90
39777;DHT22;25453;48.162;14.510;2022-11-20T05:56:16;4.90;76.90
39777;DHT22;25453;48.162;14.510;2022-11-20T05:58:51;4.90;76.90
39777;DHT22;25453;48.162;14.510;2022-11-20T06:01:19;4.90;76.90
39777;DHT22;25453;48.162;14.510;2022-11-20T06:03:53;4.90;77.00
39777;DHT22;25453;48.162;14.510;2022-11-20T06:06:21;4.90;76.90
39777;DHT22;25453;48.162;14.510;2022-11-20T06:08:49;4.90;77.00
39777;DHT22;25453;48.162;14.510;2022-11-20T06:11:23;4.90;77.20
39777;DHT22;25453;48.162;14.510;2022-11-20T06:13:50;4.90;77.10
39777;DHT22;25453;48.162;14.510;2022-11-20T06:16:25;4.90;77.20
39777;DHT22;25453;48.162;14.510;2022-11-20T06:18:52;4.90;77.10
39777;DHT22;25453;48.162;14.510;2022-11-20T06:21:26;4.90;76.90
39777;DHT22;25453;48.162;14.510;2022-11-20T06:23:53;4.90;77.00
39777;DHT22;25453;48.162;14.510;2022-11-20T06:26:26;4.90;77.00
39777;DHT22;25453;48.162;14.510;2022-11-20T06:29:07;4.90;77.10
39777;DHT22;25453;48.162;14.510;2022-11-20T06:31:40;4.90;77.00
39777;DHT22;25453;48.162;14.510;2022-11-20T06:34:09;4.90;77.10
39777;DHT22;25453;48.162;14.510;2022-11-20T06:36:56;4.90;77.10
39777;DHT22;25453;48.162;14.510;2022-11-20T06:39:31;4.90;77.10
39777;DHT22;25453;48.162;14.510;2022-11-20T06:41:58;4.80;77.20
39777;DHT22;25453;48.162;14.510;2022-11-20T06:44:26;4.80;77.30
39777;DHT22;25453;48.162;14.510;2022-11-20T06:47:00;4.80;77.40
39777;DHT22;25453;48.162;14.510;2022-11-20T06:49:27;4.80;77.30
39777;DHT22;25453;48.162;14.510;2022-11-20T06:52:02;4.90;77.40
39777;DHT22;25453;48.162;14.510;2022-11-20T06:54:29;4.90;77.40
39777;DHT22;25453;48.162;14.510;2022-11-20T06:56:57;4.90;77.40
39777;DHT22;25453;48.162;14.510;2022-11-20T06:59:33;4.90;77.40
39777;DHT22;25453;48.162;14.510;2022-11-20T07:02:00;4.80;77.40
39777;DHT22;25453;48.162;14.510;2022-11-20T07:04:35;4.80;77.50
39777;DHT22;25453;48.162;14.510;2022-11-20T07:07:02;4.80;77.50
39777;DHT22;25453;48.162;14.510;2022-11-20T07:09:37;4.90;77.60
39777;DHT22;25453;48.162;14.510;2022-11-20T07:12:06;4.90;77.60
39777;DHT22;25453;48.162;14.510;2022-11-20T07:14:33;4.90;77.60
39777;DHT22;25453;48.162;14.510;2022-11-20T07:17:07;4.90;77.40
39777;DHT22;25453;48.162;14.510;2022-11-20T07:19:34;4.80;77.50
39777;DHT22;25453;48.162;14.510;2022-11-20T07:22:11;4.80;77.40
39777;DHT22;25453;48.162;14.510;2022-11-20T07:24:40;4.90;77.60
39777;DHT22;25453;48.162;14.510;2022-11-20T07:27:14;4.90;77.50
39777;DHT22;25453;48.162;14.510;2022-11-20T07:29:42;4.90;77.60
39777;DHT22;25453;48.162;14.510;2022-11-20T07:32:09;4.90;77.90
39777;DHT22;25453;48.162;14.510;2022-11-20T07:34:43;4.90;77.90
39777;DHT22;25453;48.162;14.510;2022-11-20T07:37:30;5.00;77.90
39777;DHT22;25453;48.162;14.510;2022-11-20T07:40:00;5.00;78.10
39777;DHT22;25453;48.162;14.510;2022-11-20T07:42:34;5.10;77.90
39777;DHT22;25453;48.162;14.510;2022-11-20T07:45:01;5.10;77.90
39777;DHT22;25453;48.162;14.510;2022-11-20T07:47:36;5.10;77.80
39777;DHT22;25453;48.162;14.510;2022-11-20T07:50:05;5.10;77.70
39777;DHT22;25453;48.162;14.510;2022-11-20T07:52:33;5.10;77.90
39777;DHT22;25453;48.162;14.510;2022-11-20T07:55:08;5.10;77.70
39777;DHT22;25453;48.162;14.510;2022-11-20T07:57:35;5.10;77.80
39777;DHT22;25453;48.162;14.510;2022-11-20T08:00:11;5.10;77.80
39777;DHT22;25453;48.162;14.510;2022-11-20T08:02:41;5.20;78.00
39777;DHT22;25453;48.162;14.510;2022-11-20T08:05:16;5.20;77.90
39777;DHT22;25453;48.162;14.510;2022-11-20T08:07:44;5.20;77.80
39777;DHT22;25453;48.162;14.510;2022-11-20T08:10:18;5.20;77.90
39777;DHT22;25453;48.162;14.510;2022-11-20T08:12:50;5.20;77.90
39777;DHT22;25453;48.162;14.510;2022-11-20T08:15:48;5.20;77.60
39777;DHT22;25453;48.162;14.510;2022-11-20T08:18:17;5.20;77.70
39777;DHT22;25453;48.162;14.510;2022-11-20T08:21:02;5.30;77.70
39777;DHT22;25453;48.162;14.510;2022-11-20T08:23:30;5.30;77.90
39777;DHT22;25453;48.162;14.510;2022-11-20T08:26:05;5.40;78.10
39777;DHT22;25453;48.162;14.510;2022-11-20T08:28:40;5.40;78.00
39777;DHT22;25453;48.162;14.510;2022-11-20T08:31:14;5.40;77.80
39777;DHT22;25453;48.162;14.510;2022-11-20T08:33:41;5.50;77.80
39777;DHT22;25453;48.162;14.510;2022-11-20T08:36:28;5.50;77.90
39777;DHT22;25453;48.162;14.510;2022-11-20T08:38:55;5.60;78.10
39777;DHT22;25453;48.162;14.510;2022-11-20T08:41:30;5.60;78.10
39777;DHT22;25453;48.162;14.510;2022-11-20T08:44:02;5.60;78.00
39777;DHT22;25453;48.162;14.510;2022-11-20T08:46:39;5.70;78.00
39777;DHT22;25453;48.162;14.510;2022-11-20T08:49:10;5.70;77.80
39777;DHT22;25453;48.162;14.510;2022-11-20T08:51:44;5.70;77.90
39777;DHT22;25453;48.162;14.510;2022-11-20T08:54:21;5.70;77.80
39777;DHT22;25453;48.162;14.510;2022-11-20T08:56:49;5.70;77.90
39777;DHT22;25453;48.162;14.510;2022-11-20T08:59:23;5.70;77.80
39777;DHT22;25453;48.162;14.510;2022-11-20T09:02:19;5.70;78.00
39777;DHT22;25453;48.162;14.510;2022-11-20T09:04:47;5.70;77.80
39777;DHT22;25453;48.162;14.510;2022-11-20T09:07:21;5.70;77.90
39777;DHT22;25453;48.162;14.510;2022-11-20T09:09:48;5.70;77.80
39777;DHT22;25453;48.162;14.510;2022-11-20T09:12:42;5.70;77.90
39777;DHT22;25453;48.162;14.510;2022-11-20T09:15:09;5.70;77.90
39777;DHT22;25453;48.162;14.510;2022-11-20T09:17:55;5.80;78.00
39777;DHT22;25453;48.162;14.510;2022-11-20T09:20:23;5.80;78.20
39777;DHT22;25453;48.162;14.510;2022-11-20T09:22:57;5.90;78.20
39777;DHT22;25453;48.162;14.510;2022-11-20T09:25:28;5.90;78.00
39777;DHT22;25453;48.162;14.510;2022-11-20T09:27:57;5.90;78.00
39777;DHT22;25453;48.162;14.510;2022-11-20T09:30:31;5.90;78.00
39777;DHT22;25453;48.162;14.510;2022-11-20T09:32:58;6.10;78.70
39777;DHT22;25453;48.162;14.510;2022-11-20T09:35:32;6.30;78.90
39777;DHT22;25453;48.162;14.510;2022-11-20T09:38:15;6.70;81.30
39777;DHT22;25453;48.162;14.510;2022-11-20T09:41:03;7.60;85.10
39777;DHT22;25453;48.162;14.510;2022-11-20T09:55:03;10.60;74.00
39777;DHT22;25453;48.162;14.510;2022-11-20T09:57:42;10.90;73.40
39777;DHT22;25453;48.162;14.510;2022-11-20T10:00:18;11.10;72.60
39777;DHT22;25453;48.162;14.510;2022-11-20T10:05:42;11.40;68.60
39777;DHT22;25453;48.162;14.510;2022-11-20T10:11:58;10.90;65.60
39777;DHT22;25453;48.162;14.510;2022-11-20T10:17:40;10.40;67.40
39777;DHT22;25453;48.162;14.510;2022-11-20T10:20:35;10.50;67.70
39777;DHT22;25453;48.162;14.510;2022-11-20T10:29:15;10.90;67.60
39777;DHT22;25453;48.162;14.510;2022-11-20T10:31:50;11.00;67.20
39777;DHT22;25453;48.162;14.510;2022-11-20T10:34:48;11.00;66.40
39777;DHT22;25453;48.162;14.510;2022-11-20T10:37:29;11.00;66.00
39777;DHT22;25453;48.162;14.510;2022-11-20T10:50:37;11.10;64.80
39777;DHT22;25453;48.162;14.510;2022-11-20T10:53:18;11.00;64.20
39777;DHT22;25453;48.162;14.510;2022-11-20T10:56:09;10.70;63.70
39777;DHT22;25453;48.162;14.510;2022-11-20T10:59:07;10.50;64.00
39777;DHT22;25453;48.162;14.510;2022-11-20T11:01:46;10.30;64.40
39777;DHT22;25453;48.162;14.510;2022-11-20T11:04:40;10.20;64.70
39777;DHT22;25453;48.162;14.510;2022-11-20T11:09:53;10.00;65.60
39777;DHT22;25453;48.162;14.510;2022-11-20T11:12:28;10.00;66.00
39777;DHT22;25453;48.162;14.510;2022-11-20T11:14:57;10.00;66.30
39777;DHT22;25453;48.162;14.510;2022-11-20T11:17:33;9.90;66.40
39777;DHT22;25453;48.162;14.510;2022-11-20T11:20:20;9.70;65.70
39777;DHT22;25453;48.162;14.510;2022-11-20T11:22:57;9.50;66.30
39777;DHT22;25453;48.162;14.510;2022-11-20T11:25:35;9.30;66.20
39777;DHT22;25453;48.162;14.510;2022-11-20T11:30:50;9.00;67.00
39777;DHT22;25453;48.162;14.510;2022-11-20T11:33:20;8.80;67.40
39777;DHT22;25453;48.162;14.510;2022-11-20T11:36:17;8.60;68.00
39777;DHT22;25453;48.162;14.510;2022-11-20T11:38:52;8.50;68.60
39777;DHT22;25453;48.162;14.510;2022-11-20T11:41:25;8.40;69.00
39777;DHT22;25453;48.162;14.510;2022-11-20T11:44:32;8.30;69.30
39777;DHT22;25453;48.162;14.510;2022-11-20T11:47:30;8.20;69.90
39777;DHT22;25453;48.162;14.510;2022-11-20T11:50:23;8.20;70.20
39777;DHT22;25453;48.162;14.510;2022-11-20T11:53:13;8.10;70.80
39777;DHT22;25453;48.162;14.510;2022-11-20T11:55:58;8.10;71.10
39777;DHT22;25453;48.162;14.510;2022-11-20T11:58:52;8.10;71.40
39777;DHT22;25453;48.162;14.510;2022-11-20T12:01:51;8.10;71.70
39777;DHT22;25453;48.162;14.510;2022-11-20T12:04:46;8.00;71.90
39777;DHT22;25453;48.162;14.510;2022-11-20T12:13:02;8.00;72.70
39777;DHT22;25453;48.162;14.510;2022-11-20T12:15:33;8.00;73.00
39777;DHT22;25453;48.162;14.510;2022-11-20T12:18:15;8.00;73.20
39777;DHT22;25453;48.162;14.510;2022-11-20T12:20:54;7.90;73.40
39777;DHT22;25453;48.162;14.510;2022-11-20T12:26:19;8.00;73.80
39777;DHT22;25453;48.162;14.510;2022-11-20T12:31:50;7.90;74.10
39777;DHT22;25453;48.162;14.510;2022-11-20T12:37:40;7.90;74.60
39777;DHT22;25453;48.162;14.510;2022-11-20T12:43:51;7.90;74.90
39777;DHT22;25453;48.162;14.510;2022-11-20T12:52:53;7.80;75.40
39777;DHT22;25453;48.162;14.510;2022-11-20T12:58:27;7.80;75.80
39777;DHT22;25453;48.162;14.510;2022-11-20T13:01:25;7.80;75.90
39777;DHT22;25453;48.162;14.510;2022-11-20T13:07:06;7.80;76.20
39777;DHT22;25453;48.162;14.510;2022-11-20T13:09:46;7.70;76.20
39777;DHT22;25453;48.162;14.510;2022-11-20T13:12:53;7.70;76.40
39777;DHT22;25453;48.162;14.510;2022-11-20T13:18:16;7.70;76.90
39777;DHT22;25453;48.162;14.510;2022-11-20T13:20:51;7.70;77.00
39777;DHT22;25453;48.162;14.510;2022-11-20T13:23:26;7.70;77.10
39777;DHT22;25453;48.162;14.510;2022-11-20T13:26:13;7.70;77.00
39777;DHT22;25453;48.162;14.510;2022-11-20T13:28:42;7.70;77.30
39777;DHT22;25453;48.162;14.510;2022-11-20T13:31:44;7.80;77.30
39777;DHT22;25453;48.162;14.510;2022-11-20T13:34:21;7.80;77.40
39777;DHT22;25453;48.162;14.510;2022-11-20T13:36:58;7.80;77.40
39777;DHT22;25453;48.162;14.510;2022-11-20T13:39:37;7.80;77.50
39777;DHT22;25453;48.162;14.510;2022-11-20T13:44:47;7.80;77.70
39777;DHT22;25453;48.162;14.510;2022-11-20T13:47:27;7.80;77.80
39777;DHT22;25453;48.162;14.510;2022-11-20T13:49:57;7.80;78.00
39777;DHT22;25453;48.162;14.510;2022-11-20T13:52:55;7.80;78.20
39777;DHT22;25453;48.162;14.510;2022-11-20T13:56:16;7.80;78.20
39777;DHT22;25453;48.162;14.510;2022-11-20T14:01:45;7.80;78.40
39777;DHT22;25453;48.162;14.510;2022-11-20T14:04:24;7.80;78.60
39777;DHT22;25453;48.162;14.510;2022-11-20T14:07:00;7.80;78.70
39777;DHT22;25453;48.162;14.510;2022-11-20T14:09:34;7.80;78.70
39777;DHT22;25453;48.162;14.510;2022-11-20T14:12:17;7.80;78.90
39777;DHT22;25453;48.162;14.510;2022-11-20T14:14:53;7.80;78.90
39777;DHT22;25453;48.162;14.510;2022-11-20T14:17:35;7.80;79.00
39777;DHT22;25453;48.162;14.510;2022-11-20T14:20:12;7.80;78.90
39777;DHT22;25453;48.162;14.510;2022-11-20T14:22:55;7.70;79.10
39777;DHT22;25453;48.162;14.510;2022-11-20T14:25:29;7.70;79.10
39777;DHT22;25453;48.162;14.510;2022-11-20T14:27:59;7.70;79.30
39777;DHT22;25453;48.162;14.510;2022-11-20T14:30:45;7.70;79.30
39777;DHT22;25453;48.162;14.510;2022-11-20T14:33:14;7.60;79.40
39777;DHT22;25453;48.162;14.510;2022-11-20T14:35:57;7.60;79.60
39777;DHT22;25453;48.162;14.510;2022-11-20T14:38:33;7.60;79.60
39777;DHT22;25453;48.162;14.510;2022-11-20T14:41:22;7.70;79.80
39777;DHT22;25453;48.162;14.510;2022-11-20T14:43:59;7.70;80.00
39777;DHT22;25453;48.162;14.510;2022-11-20T14:46:34;7.70;80.10
39777;DHT22;25453;48.162;14.510;2022-11-20T14:49:03;7.80;80.20
39777;DHT22;25453;48.162;14.510;2022-11-20T14:51:37;7.80;80.30
39777;DHT22;25453;48.162;14.510;2022-11-20T14:54:20;7.80;80.20
39777;DHT22;25453;48.162;14.510;2022-11-20T14:57:03;7.80;80.20
39777;DHT22;25453;48.162;14.510;2022-11-20T14:59:38;7.80;80.30
39777;DHT22;25453;48.162;14.510;2022-11-20T15:02:13;7.80;80.30
39777;DHT22;25453;48.162;14.510;2022-11-20T15:04:51;7.80;80.40
39777;DHT22;25453;48.162;14.510;2022-11-20T15:07:27;7.80;80.40
39777;DHT22;25453;48.162;14.510;2022-11-20T15:10:08;7.80;80.40
39777;DHT22;25453;48.162;14.510;2022-11-20T15:12:49;7.80;80.50
39777;DHT22;25453;48.162;14.510;2022-11-20T15:15:22;7.80;80.40
39777;DHT22;25453;48.162;14.510;2022-11-20T15:17:58;7.70;80.40
39777;DHT22;25453;48.162;14.510;2022-11-20T15:20:28;7.70;80.50
39777;DHT22;25453;48.162;14.510;2022-11-20T15:22:56;7.70;81.30
39777;DHT22;25453;48.162;14.510;2022-11-20T15:25:31;7.80;81.40
39777;DHT22;25453;48.162;14.510;2022-11-20T15:28:21;7.80;81.10
39777;DHT22;25453;48.162;14.510;2022-11-20T15:30:50;7.80;80.90
39777;DHT22;25453;48.162;14.510;2022-11-20T15:33:26;7.80;80.90
39777;DHT22;25453;48.162;14.510;2022-11-20T15:36:00;7.80;80.80
39777;DHT22;25453;48.162;14.510;2022-11-20T15:38:41;7.80;80.80
39777;DHT22;25453;48.162;14.510;2022-11-20T15:41:08;7.80;80.80
39777;DHT22;25453;48.162;14.510;2022-11-20T15:43:42;7.70;80.90
39777;DHT22;25453;48.162;14.510;2022-11-20T15:46:12;7.70;80.90
39777;DHT22;25453;48.162;14.510;2022-11-20T15:48:57;7.70;81.00
39777;DHT22;25453;48.162;14.510;2022-11-20T15:51:37;7.60;81.10
39777;DHT22;25453;48.162;14.510;2022-11-20T15:54:14;7.70;81.20
39777;DHT22;25453;48.162;14.510;2022-11-20T15:56:50;7.60;81.20
39777;DHT22;25453;48.162;14.510;2022-11-20T15:59:21;7.60;81.20
39777;DHT22;25453;48.162;14.510;2022-11-20T16:01:55;7.60;81.30
39777;DHT22;25453;48.162;14.510;2022-11-20T16:04:22;7.60;81.40
39777;DHT22;25453;48.162;14.510;2022-11-20T16:06:50;7.60;81.40
39777;DHT22;25453;48.162;14.510;2022-11-20T16:09:24;7.60;81.50
39777;DHT22;25453;48.162;14.510;2022-11-20T16:11:58;7.60;81.50
39777;DHT22;25453;48.162;14.510;2022-11-20T16:14:28;7.60;81.60
39777;DHT22;25453;48.162;14.510;2022-11-20T16:17:21;7.60;81.60
39777;DHT22;25453;48.162;14.510;2022-11-20T16:20:15;7.60;81.50
39777;DHT22;25453;48.162;14.510;2022-11-20T16:22:51;7.60;81.50
39777;DHT22;25453;48.162;14.510;2022-11-20T16:25:20;7.60;81.50
39777;DHT22;25453;48.162;14.510;2022-11-20T16:27:54;7.60;81.50
39777;DHT22;25453;48.162;14.510;2022-11-20T16:30:21;7.50;81.50
39777;DHT22;25453;48.162;14.510;2022-11-20T16:32:56;7.50;81.70
39777;DHT22;25453;48.162;14.510;2022-11-20T16:35:30;7.50;81.60
39777;DHT22;25453;48.162;14.510;2022-11-20T16:38:05;7.40;81.60
39777;DHT22;25453;48.162;14.510;2022-11-20T16:40:39;7.40;81.80
39777;DHT22;25453;48.162;14.510;2022-11-20T16:43:14;7.40;81.70
39777;DHT22;25453;48.162;14.510;2022-11-20T16:45:43;7.40;81.60
39777;DHT22;25453;48.162;14.510;2022-11-20T16:48:18;7.40;81.80
39777;DHT22;25453;48.162;14.510;2022-11-20T16:50:51;7.40;81.90
39777;DHT22;25453;48.162;14.510;2022-11-20T16:53:25;7.40;81.90
39777;DHT22;25453;48.162;14.510;2022-11-20T16:55:52;7.40;81.90
39777;DHT22;25453;48.162;14.510;2022-11-20T16:58:26;7.40;81.90
39777;DHT22;25453;48.162;14.510;2022-11-20T17:01:12;7.40;81.90
39777;DHT22;25453;48.162;14.510;2022-11-20T17:03:41;7.40;81.80
39777;DHT22;25453;48.162;14.510;2022-11-20T17:06:20;7.40;81.90
39777;DHT22;25453;48.162;14.510;2022-11-20T17:08:55;7.40;81.80
39777;DHT22;25453;48.162;14.510;2022-11-20T17:11:23;7.30;81.50
39777;DHT22;25453;48.162;14.510;2022-11-20T17:13:58;7.20;81.50
39777;DHT22;25453;48.162;14.510;2022-11-20T17:16:35;7.10;81.90
39777;DHT22;25453;48.162;14.510;2022-11-20T17:19:09;7.10;82.20
39777;DHT22;25453;48.162;14.510;2022-11-20T17:21:37;7.10;82.30
39777;DHT22;25453;48.162;14.510;2022-11-20T17:24:10;7.20;82.60
39777;DHT22;25453;48.162;14.510;2022-11-20T17:26:48;7.20;82.70
39777;DHT22;25453;48.162;14.510;2022-11-20T17:29:22;7.20;82.70
39777;DHT22;25453;48.162;14.510;2022-11-20T17:31:54;7.30;82.60
39777;DHT22;25453;48.162;14.510;2022-11-20T17:34:28;7.30;82.60
39777;DHT22;25453;48.162;14.510;2022-11-20T17:37:08;7.30;82.60
39777;DHT22;25453;48.162;14.510;2022-11-20T17:39:42;7.40;82.70
39777;DHT22;25453;48.162;14.510;2022-11-20T17:42:10;7.40;82.80
39777;DHT22;25453;48.162;14.510;2022-11-20T17:45:00;7.40;82.70